Deadhorse Airport Deadhorse US
ICAO: PASC
IATA:
Category: Medium
Scheduled Services:

Elevation: 65 ft
TransAlt. 18000 ft.

Airport Communications:
ATIS:118.4
ANCHORAGE CNTR:134.4
CTAF:123.6
RDO:122.2
UNICOM:123

PASC Zoom In..

Runways:

(A) RW 05 length 6500 ft width 150 ft
ILS 109.30 / hdg 52

(B) RW 06 length 6500 ft width 100 ft
---- / hdg 52

(C) RW 23 length 6500 ft width 150 ft
---- / hdg 232

(D) RW 24 length 6500 ft width 100 ft
---- / hdg 232

Location; PASC
Day. 22 / Time. 23.53 Zulu
* Altimeter: 30.28
* Temperature: -32° c. 25.6°f.
* Wind from: 250° Speed 12 kn.
Dewpoint: -35° c.
Visibility: 6 Statute Miles.
Clouds: Overcast 9500 ft.
Conditions: Light Snow.Conditions: Mist.

PASC 222353Z AUTO 25012KT 6SM -SN BR OVC095 M32/M35 A3028 RMK AO2 SLP257 P0000 60000 T13221350 11322 21361 58001 TSNO


Wind From 250°
Speed 12 kn.

YouTube Music Video
 
jpsmedia.com for Web Design  worldairports.se 2018   terms of use